createdAt,value
2022-09-11T00:01:15.889Z,100863.34
2022-09-11T00:03:43.993Z,100867.47
2022-09-11T00:06:14.276Z,100866.94
2022-09-11T00:08:42.266Z,100855.66
2022-09-11T00:11:12.386Z,100869.16
2022-09-11T00:13:40.455Z,100870.63
2022-09-11T00:16:17.941Z,100874.22
2022-09-11T00:18:44.727Z,100873.13
2022-09-11T00:21:11.304Z,100883.41
2022-09-11T00:23:37.862Z,100871.47
2022-09-11T00:26:05.081Z,100873.25
2022-09-11T00:28:31.649Z,100864.59
2022-09-11T00:31:12.613Z,100871.75
2022-09-11T00:33:40.175Z,100868.59
2022-09-11T00:36:13.209Z,100863.88
2022-09-11T00:38:40.306Z,100863.50
2022-09-11T00:41:12.614Z,100866.00
2022-09-11T00:44:02.669Z,100862.34
2022-09-11T00:46:54.661Z,100863.34
2022-09-11T00:49:32.569Z,100849.91
2022-09-11T00:52:27.281Z,100871.84
2022-09-11T00:54:59.879Z,100865.34
2022-09-11T00:57:30.422Z,100857.13
2022-09-11T00:59:59.448Z,100862.09
2022-09-11T01:02:28.322Z,100862.25
2022-09-11T01:04:57.246Z,100854.47
2022-09-11T01:07:26.521Z,100863.06
2022-09-11T01:09:54.160Z,100869.88
2022-09-11T01:12:39.093Z,100858.25
2022-09-11T01:15:30.206Z,100862.97
2022-09-11T01:18:26.877Z,100856.16
2022-09-11T01:20:56.018Z,100863.06
2022-09-11T01:23:56.627Z,100867.97
2022-09-11T01:26:36.884Z,100864.78
2022-09-11T01:29:12.424Z,100870.78
2022-09-11T01:31:50.022Z,100863.91
2022-09-11T01:34:27.077Z,100870.88
2022-09-11T01:37:01.027Z,100868.09
2022-09-11T01:39:33.785Z,100871.69
2022-09-11T01:42:05.925Z,100878.13
2022-09-11T01:44:41.630Z,100878.72
2022-09-11T01:47:11.861Z,100877.53
2022-09-11T01:49:45.740Z,100881.22
2022-09-11T01:52:18.512Z,100877.38
2022-09-11T01:55:01.305Z,100879.19
2022-09-11T01:57:42.742Z,100874.38
2022-09-11T02:00:13.442Z,100877.78
2022-09-11T02:02:47.247Z,100869.63
2022-09-11T02:05:18.407Z,100875.28
2022-09-11T02:07:55.950Z,100875.16
2022-09-11T02:10:32.898Z,100882.41
2022-09-11T02:13:11.394Z,100887.28
2022-09-11T02:15:46.304Z,100877.44
2022-09-11T02:18:18.798Z,100882.16
2022-09-11T02:20:47.530Z,100872.88
2022-09-11T02:23:15.551Z,100875.38
2022-09-11T02:25:42.215Z,100880.53
2022-09-11T02:28:09.935Z,100884.28
2022-09-11T02:30:38.565Z,100870.69
2022-09-11T02:33:26.374Z,100881.66
2022-09-11T02:35:59.527Z,100884.28
2022-09-11T02:38:39.932Z,100875.13
2022-09-11T02:41:24.008Z,100886.03
2022-09-11T02:44:06.997Z,100879.38
2022-09-11T02:47:15.195Z,100884.91
2022-09-11T02:50:21.990Z,100879.97
2022-09-11T02:53:11.617Z,100875.44
2022-09-11T02:55:56.604Z,100880.38
2022-09-11T02:58:29.672Z,100877.94
2022-09-11T03:01:01.750Z,100879.34
2022-09-11T03:03:38.534Z,100876.50
2022-09-11T03:06:06.243Z,100884.84
2022-09-11T03:08:32.866Z,100879.75
2022-09-11T03:11:00.106Z,100874.66
2022-09-11T03:13:27.028Z,100873.25
2022-09-11T03:15:54.061Z,100886.09
2022-09-11T03:18:20.627Z,100887.44
2022-09-11T03:20:47.329Z,100885.81
2022-09-11T03:23:14.441Z,100883.84
2022-09-11T03:25:41.348Z,100884.59
2022-09-11T03:28:08.959Z,100888.19
2022-09-11T03:30:35.684Z,100878.50
2022-09-11T03:33:02.377Z,100881.97
2022-09-11T03:35:29.146Z,100886.25
2022-09-11T03:37:55.738Z,100884.28
2022-09-11T03:40:22.417Z,100880.81
2022-09-11T03:42:49.068Z,100891.63
2022-09-11T03:45:17.216Z,100884.28
2022-09-11T03:47:43.800Z,100892.19
2022-09-11T03:50:11.551Z,100889.84
2022-09-11T03:52:39.555Z,100892.34
2022-09-11T03:55:07.025Z,100886.00
2022-09-11T03:57:34.109Z,100888.38
2022-09-11T04:00:01.528Z,100883.50
2022-09-11T04:02:33.733Z,100892.34
2022-09-11T04:05:00.393Z,100886.63
2022-09-11T04:07:27.297Z,100892.47
2022-09-11T04:09:54.214Z,100889.81
2022-09-11T04:12:20.797Z,100894.81
2022-09-11T04:14:48.235Z,100897.50
2022-09-11T04:17:17.152Z,100888.00
2022-09-11T04:19:43.765Z,100892.03
2022-09-11T04:22:10.502Z,100896.41
2022-09-11T04:24:40.054Z,100888.16
2022-09-11T04:27:06.810Z,100890.88
2022-09-11T04:29:33.912Z,100891.75
2022-09-11T04:32:01.463Z,100891.75
2022-09-11T04:34:31.244Z,100893.16
2022-09-11T04:36:57.904Z,100898.78
2022-09-11T04:39:26.021Z,100887.03
2022-09-11T04:41:52.648Z,100895.63
2022-09-11T04:44:21.534Z,100898.47
2022-09-11T04:46:48.144Z,100897.81
2022-09-11T04:49:15.340Z,100894.94
2022-09-11T04:51:45.180Z,100890.88
2022-09-11T04:54:16.505Z,100897.09
2022-09-11T04:56:43.301Z,100893.00
2022-09-11T04:59:16.094Z,100893.16
2022-09-11T05:01:48.775Z,100900.31
2022-09-11T05:04:21.702Z,100892.69
2022-09-11T05:06:51.117Z,100897.81
2022-09-11T05:09:18.874Z,100902.50
2022-09-11T05:11:47.145Z,100907.25
2022-09-11T05:14:15.225Z,100909.69
2022-09-11T05:16:44.994Z,100905.19
2022-09-11T05:19:12.571Z,100914.63
2022-09-11T05:21:39.801Z,100914.25
2022-09-11T05:24:06.373Z,100909.53
2022-09-11T05:26:36.850Z,100912.63
2022-09-11T05:29:11.713Z,100924.50
2022-09-11T05:31:44.822Z,100914.34
2022-09-11T05:34:14.135Z,100918.78
2022-09-11T05:36:41.456Z,100922.94
2022-09-11T05:39:09.420Z,100915.41
2022-09-11T05:41:36.883Z,100921.97
2022-09-11T05:44:06.076Z,100926.16
2022-09-11T05:46:36.934Z,100932.00
2022-09-11T05:49:03.801Z,100934.38
2022-09-11T05:51:30.466Z,100927.44
2022-09-11T05:53:58.617Z,100933.28
2022-09-11T05:56:26.498Z,100933.00
2022-09-11T05:58:58.633Z,100935.13
2022-09-11T06:01:33.375Z,100935.13
2022-09-11T06:04:12.262Z,100939.13
2022-09-11T06:06:41.443Z,100938.00
2022-09-11T06:09:08.182Z,100940.09
2022-09-11T06:11:35.058Z,100943.66
2022-09-11T06:14:02.509Z,100942.72
2022-09-11T06:16:31.435Z,100947.72
2022-09-11T06:19:05.661Z,100949.91
2022-09-11T06:21:32.327Z,100951.16
2022-09-11T06:24:08.172Z,100949.59
2022-09-11T06:26:35.463Z,100953.69
2022-09-11T06:29:02.970Z,100956.13
2022-09-11T06:31:30.451Z,100963.88
2022-09-11T06:33:57.814Z,100958.19
2022-09-11T06:36:32.710Z,100960.41
2022-09-11T06:39:03.139Z,100958.22
2022-09-11T06:41:30.805Z,100966.94
2022-09-11T06:44:03.094Z,100966.19
2022-09-11T06:46:30.922Z,100970.22
2022-09-11T06:48:59.260Z,100966.63
2022-09-11T06:51:28.163Z,100976.69
2022-09-11T06:53:57.989Z,100976.75
2022-09-11T06:56:28.189Z,100978.75
2022-09-11T06:58:56.159Z,100981.84
2022-09-11T07:01:30.788Z,100983.13
2022-09-11T07:04:03.037Z,100976.91
2022-09-11T07:06:32.392Z,100984.03
2022-09-11T07:09:02.672Z,100977.47
2022-09-11T07:11:44.823Z,100980.31
2022-09-11T07:14:11.605Z,100987.13
2022-09-11T07:16:41.166Z,100980.13
2022-09-11T07:19:11.162Z,100987.81
2022-09-11T07:21:41.838Z,100989.91
2022-09-11T07:24:09.250Z,100983.34
2022-09-11T07:26:39.809Z,100981.00
2022-09-11T07:29:15.715Z,100988.22
2022-09-11T07:31:52.402Z,100981.72
2022-09-11T07:34:19.212Z,100988.00
2022-09-11T07:36:51.726Z,100986.22
2022-09-11T07:39:19.532Z,100990.72
2022-09-11T07:41:55.587Z,100997.13
2022-09-11T07:44:30.037Z,100995.03
2022-09-11T07:46:57.686Z,100990.75
2022-09-11T07:49:24.727Z,100994.94
2022-09-11T07:51:52.738Z,100985.91
2022-09-11T07:54:29.090Z,100988.19
2022-09-11T07:57:07.988Z,100994.59
2022-09-11T07:59:34.894Z,101008.88
2022-09-11T08:02:03.013Z,101001.13
2022-09-11T08:04:31.220Z,101006.94
2022-09-11T08:06:57.955Z,101014.72
2022-09-11T08:09:33.465Z,101017.06
2022-09-11T08:12:03.729Z,101013.19
2022-09-11T08:14:32.586Z,101013.72
2022-09-11T08:17:08.621Z,101017.63
2022-09-11T08:19:37.117Z,101017.28
2022-09-11T08:22:04.007Z,101010.09
2022-09-11T08:24:35.728Z,101021.16
2022-09-11T08:27:06.075Z,101022.25
2022-09-11T08:29:35.902Z,101016.50
2022-09-11T08:32:02.673Z,101014.00
2022-09-11T08:34:31.866Z,101022.22
2022-09-11T08:36:58.810Z,101014.00
2022-09-11T08:39:27.597Z,101013.72
2022-09-11T08:42:06.003Z,101018.16
2022-09-11T08:44:48.807Z,101010.53
2022-09-11T08:47:31.178Z,101016.09
2022-09-11T08:50:07.173Z,101012.75
2022-09-11T08:52:35.945Z,101022.06
2022-09-11T08:55:03.453Z,101020.25
2022-09-11T08:57:33.493Z,101027.19
2022-09-11T09:00:20.539Z,101031.63
2022-09-11T09:03:30.539Z,101027.88
2022-09-11T09:06:11.844Z,101029.53
2022-09-11T09:09:08.786Z,101030.97
2022-09-11T09:12:05.460Z,101039.44
2022-09-11T09:15:17.164Z,101031.06
2022-09-11T09:17:57.048Z,101033.53
2022-09-11T09:20:33.822Z,101033.53
2022-09-11T09:23:23.613Z,101032.88
2022-09-11T09:25:57.137Z,101040.69
2022-09-11T09:28:31.332Z,101035.25
2022-09-11T09:31:07.977Z,101027.63
2022-09-11T09:33:35.292Z,101033.84
2022-09-11T09:36:16.759Z,101037.44
2022-09-11T09:38:46.541Z,101042.31
2022-09-11T09:41:22.758Z,101035.81
2022-09-11T09:44:19.614Z,101032.88
2022-09-11T09:46:54.163Z,101036.22
2022-09-11T09:49:31.109Z,101032.75
2022-09-11T09:52:04.060Z,101039.72
2022-09-11T09:54:37.167Z,101034.19
2022-09-11T09:57:07.760Z,101047.91
2022-09-11T09:59:48.288Z,101042.91
2022-09-11T10:02:39.477Z,101049.63
2022-09-11T10:05:27.617Z,101045.81
2022-09-11T10:07:57.734Z,101040.94
2022-09-11T10:10:38.636Z,101061.19
2022-09-11T10:13:25.003Z,101055.88
2022-09-11T10:15:54.023Z,101059.25
2022-09-11T10:18:33.183Z,101054.91
2022-09-11T10:21:12.091Z,101061.66
2022-09-11T10:24:01.780Z,101057.56
2022-09-11T10:26:49.781Z,101060.09
2022-09-11T10:29:24.280Z,101058.94
2022-09-11T10:31:53.107Z,101064.31
2022-09-11T10:34:22.310Z,101066.41
2022-09-11T10:37:16.507Z,101056.41
2022-09-11T10:39:47.054Z,101061.00
2022-09-11T10:42:16.897Z,101060.91
2022-09-11T10:44:49.207Z,101061.38
2022-09-11T10:47:17.572Z,101056.16
2022-09-11T10:49:45.084Z,101062.53
2022-09-11T10:52:11.661Z,101065.03
2022-09-11T10:54:54.099Z,101057.13
2022-09-11T10:57:45.349Z,101060.22
2022-09-11T11:00:22.670Z,101053.91
2022-09-11T11:02:53.263Z,101049.72
2022-09-11T11:05:31.878Z,101053.25
2022-09-11T11:08:09.515Z,101057.97
2022-09-11T11:11:03.748Z,101058.91
2022-09-11T11:14:01.925Z,101054.06
2022-09-11T11:16:48.687Z,101058.41
2022-09-11T11:19:58.808Z,101058.13
2022-09-11T11:22:28.678Z,101053.13
2022-09-11T11:25:30.287Z,101057.41
2022-09-11T11:28:20.251Z,101058.72
2022-09-11T11:31:35.787Z,101056.63
2022-09-11T11:34:15.676Z,101057.53
2022-09-11T11:36:48.158Z,101047.19
2022-09-11T11:39:23.193Z,101049.97
2022-09-11T11:42:12.825Z,101055.53
2022-09-11T11:44:44.700Z,101052.19
2022-09-11T11:47:12.646Z,101052.31
2022-09-11T11:50:06.717Z,101059.34
2022-09-11T11:52:34.391Z,101058.72
2022-09-11T11:55:18.123Z,101060.91
2022-09-11T11:57:54.119Z,101055.75
2022-09-11T12:00:21.503Z,101060.09
2022-09-11T12:03:18.288Z,101064.69
2022-09-11T12:05:44.942Z,101057.75
2022-09-11T12:08:16.642Z,101061.75
2022-09-11T12:10:55.979Z,101056.34
2022-09-11T12:13:29.928Z,101068.16
2022-09-11T12:16:14.935Z,101061.06
2022-09-11T12:19:00.759Z,101063.16
2022-09-11T12:21:32.539Z,101057.06
2022-09-11T12:23:59.905Z,101058.72
2022-09-11T12:26:32.138Z,101062.47
2022-09-11T12:29:17.625Z,101066.34
2022-09-11T12:32:18.954Z,101056.06
2022-09-11T12:34:45.979Z,101065.63
2022-09-11T12:37:26.025Z,101060.06
2022-09-11T12:40:00.878Z,101056.06
2022-09-11T12:42:30.402Z,101066.72
2022-09-11T12:44:59.679Z,101063.28
2022-09-11T12:47:42.630Z,101068.00
2022-09-11T12:50:12.184Z,101068.84
2022-09-11T12:52:46.486Z,101069.84
2022-09-11T12:55:35.910Z,101073.28
2022-09-11T12:58:07.432Z,101067.88
2022-09-11T13:00:43.737Z,101078.88
2022-09-11T13:03:21.501Z,101068.44
2022-09-11T13:05:56.907Z,101074.81
2022-09-11T13:08:27.888Z,101063.88
2022-09-11T13:11:40.816Z,101064.41
2022-09-11T13:14:28.090Z,101064.81
2022-09-11T13:16:59.805Z,101064.53
2022-09-11T13:19:37.100Z,101069.69
2022-09-11T13:22:22.007Z,101069.97
2022-09-11T13:24:51.478Z,101065.78
2022-09-11T13:27:29.351Z,101067.31
2022-09-11T13:29:58.159Z,101057.03
2022-09-11T13:32:26.783Z,101059.94
2022-09-11T13:35:01.968Z,101056.06
2022-09-11T13:37:46.849Z,101056.78
2022-09-11T13:40:27.551Z,101051.88
2022-09-11T13:42:54.395Z,101053.97
2022-09-11T13:45:28.625Z,101055.97
2022-09-11T13:47:57.493Z,101054.13
2022-09-11T13:50:32.268Z,101049.41
2022-09-11T13:53:01.895Z,101052.31
2022-09-11T13:55:30.122Z,101055.91
2022-09-11T13:58:03.367Z,101052.41
2022-09-11T14:00:44.980Z,101050.75
2022-09-11T14:03:20.374Z,101048.16
2022-09-11T14:05:53.936Z,101059.13
2022-09-11T14:08:36.884Z,101053.28
2022-09-11T14:11:21.254Z,101054.38
2022-09-11T14:14:09.793Z,101051.59
2022-09-11T14:16:47.970Z,101036.34
2022-09-11T14:19:20.341Z,101048.00
2022-09-11T14:21:51.307Z,101045.91
2022-09-11T14:24:27.424Z,101051.88
2022-09-11T14:26:58.228Z,101040.34
2022-09-11T14:29:32.110Z,101050.63
2022-09-11T14:32:36.998Z,101042.16
2022-09-11T14:35:07.178Z,101046.72
2022-09-11T14:37:40.247Z,101039.72
2022-09-11T14:40:14.886Z,101042.84
2022-09-11T14:42:42.952Z,101047.72
2022-09-11T14:45:21.472Z,101044.19
2022-09-11T14:47:49.692Z,101048.88
2022-09-11T14:50:16.831Z,101049.44
2022-09-11T14:52:46.777Z,101050.31
2022-09-11T14:55:18.442Z,101055.50
2022-09-11T14:57:51.408Z,101053.78
2022-09-11T15:00:19.293Z,101062.78
2022-09-11T15:02:46.509Z,101052.06
2022-09-11T15:05:16.506Z,101048.13
2022-09-11T15:07:45.485Z,101069.75
2022-09-11T15:10:13.578Z,101061.16
2022-09-11T15:12:40.217Z,101061.16
2022-09-11T15:15:07.364Z,101065.06
2022-09-11T15:17:36.274Z,101058.75
2022-09-11T15:20:09.423Z,101058.09
2022-09-11T15:22:38.288Z,101052.19
2022-09-11T15:25:05.611Z,101053.97
2022-09-11T15:27:32.318Z,101048.22
2022-09-11T15:30:04.275Z,101046.47
2022-09-11T15:32:31.415Z,101042.16
2022-09-11T15:34:58.081Z,101053.19
2022-09-11T15:37:25.424Z,101050.31
2022-09-11T15:39:52.287Z,101053.50
2022-09-11T15:42:19.323Z,101053.06
2022-09-11T15:44:48.141Z,101052.28
2022-09-11T15:47:14.830Z,101061.56
2022-09-11T15:49:44.428Z,101049.56
2022-09-11T15:52:11.288Z,101060.22
2022-09-11T15:54:37.959Z,101053.41
2022-09-11T15:57:04.540Z,101065.28
2022-09-11T15:59:31.105Z,101060.00
2022-09-11T16:01:59.154Z,101062.09
2022-09-11T16:04:30.904Z,101060.88
2022-09-11T16:06:57.452Z,101065.44
2022-09-11T16:09:29.438Z,101057.16
2022-09-11T16:11:56.910Z,101066.38
2022-09-11T16:14:27.246Z,101069.59
2022-09-11T16:16:58.407Z,101068.78
2022-09-11T16:19:28.128Z,101065.03
2022-09-11T16:22:00.766Z,101058.22
2022-09-11T16:24:29.232Z,101054.50
2022-09-11T16:26:56.111Z,101057.63
2022-09-11T16:29:43.999Z,101053.97
2022-09-11T16:32:28.080Z,101046.16
2022-09-11T16:34:57.006Z,101043.25
2022-09-11T16:37:23.978Z,101045.78
2022-09-11T16:39:50.841Z,101039.88
2022-09-11T16:42:21.729Z,101046.03
2022-09-11T16:44:49.667Z,101041.31
2022-09-11T16:47:16.813Z,101035.75
2022-09-11T16:52:34.503Z,101044.25
2022-09-11T16:55:01.534Z,101042.31
2022-09-11T16:57:28.193Z,101036.63
2022-09-11T16:59:54.872Z,101043.13
2022-09-11T17:02:24.338Z,101038.19
2022-09-11T17:04:51.016Z,101035.81
2022-09-11T17:07:20.036Z,101035.13
2022-09-11T17:09:49.195Z,101041.34
2022-09-11T17:12:17.945Z,101032.44
2022-09-11T17:14:46.462Z,101038.72
2022-09-11T17:17:13.282Z,101039.06
2022-09-11T17:19:42.935Z,101040.84
2022-09-11T17:22:10.560Z,101044.19
2022-09-11T17:24:38.754Z,101041.00
2022-09-11T17:27:05.574Z,101049.53
2022-09-11T17:29:44.587Z,101048.38
2022-09-11T17:32:27.218Z,101040.16
2022-09-11T17:34:55.063Z,101042.91
2022-09-11T17:37:24.162Z,101053.41
2022-09-11T17:39:50.778Z,101042.13
2022-09-11T17:42:20.577Z,101049.03
2022-09-11T17:44:47.894Z,101043.31
2022-09-11T17:47:14.949Z,101053.00
2022-09-11T17:49:42.956Z,101049.78
2022-09-11T17:52:09.725Z,101053.75
2022-09-11T17:54:39.588Z,101057.91
2022-09-11T17:57:08.833Z,101056.13
2022-09-11T17:59:39.204Z,101057.22
2022-09-11T18:02:06.234Z,101059.72
2022-09-11T18:04:32.993Z,101053.63
2022-09-11T18:06:59.599Z,101049.94
2022-09-11T18:09:26.241Z,101050.63
2022-09-11T18:11:54.578Z,101056.25
2022-09-11T18:14:21.582Z,101047.53
2022-09-11T18:16:48.223Z,101061.25
2022-09-11T18:19:16.313Z,101064.53
2022-09-11T18:21:45.614Z,101065.00
2022-09-11T18:24:19.887Z,101077.19
2022-09-11T18:26:49.936Z,101075.38
2022-09-11T18:29:19.970Z,101079.25
2022-09-11T18:31:50.149Z,101078.53
2022-09-11T18:34:22.600Z,101073.50
2022-09-11T18:36:49.559Z,101075.28
2022-09-11T18:39:17.989Z,101081.97
2022-09-11T18:41:45.787Z,101076.63
2022-09-11T18:44:19.273Z,101078.06
2022-09-11T18:46:46.879Z,101078.31
2022-09-11T18:49:15.146Z,101079.97
2022-09-11T18:51:42.400Z,101082.38
2022-09-11T18:54:18.221Z,101078.31
2022-09-11T18:56:45.216Z,101083.56
2022-09-11T18:59:12.890Z,101078.66
2022-09-11T19:01:41.184Z,101078.16
2022-09-11T19:04:10.357Z,101083.91
2022-09-11T19:06:38.686Z,101085.22
2022-09-11T19:09:07.471Z,101082.69
2022-09-11T19:11:34.127Z,101082.47
2022-09-11T19:14:07.121Z,101079.75
2022-09-11T19:16:34.003Z,101088.81
2022-09-11T19:19:00.638Z,101081.25
2022-09-11T19:21:27.866Z,101088.91
2022-09-11T19:24:00.330Z,101086.19
2022-09-11T19:26:34.991Z,101087.47
2022-09-11T19:29:01.891Z,101088.06
2022-09-11T19:31:29.708Z,101078.50
2022-09-11T19:33:57.915Z,101083.75
2022-09-11T19:36:26.845Z,101086.41
2022-09-11T19:38:55.940Z,101088.34
2022-09-11T19:41:24.361Z,101088.56
2022-09-11T19:43:50.978Z,101086.66
2022-09-11T19:46:24.095Z,101087.97
2022-09-11T19:48:53.377Z,101095.00
2022-09-11T19:51:22.966Z,101100.63
2022-09-11T19:53:51.138Z,101099.19
2022-09-11T19:56:19.117Z,101100.22
2022-09-11T19:58:45.690Z,101099.19
2022-09-11T20:01:18.404Z,101094.97
2022-09-11T20:03:46.121Z,101104.03
2022-09-11T20:06:16.387Z,101088.31
2022-09-11T20:08:45.491Z,101086.00
2022-09-11T20:11:21.250Z,101098.66
2022-09-11T20:13:48.422Z,101101.28
2022-09-11T20:16:18.123Z,101098.03
2022-09-11T20:18:45.028Z,101106.03
2022-09-11T20:21:15.585Z,101097.69
2022-09-11T20:23:44.164Z,101089.91
2022-09-11T20:26:21.386Z,101095.16
2022-09-11T20:28:53.486Z,101092.75
2022-09-11T20:31:24.241Z,101091.94
2022-09-11T20:33:54.138Z,101084.28
2022-09-11T20:36:21.591Z,101087.06
2022-09-11T20:38:52.513Z,101105.63
2022-09-11T20:41:20.242Z,101090.72
2022-09-11T20:43:47.058Z,101097.28
2022-09-11T20:46:13.725Z,101095.47
2022-09-11T20:48:40.638Z,101092.34
2022-09-11T20:51:10.120Z,101094.91
2022-09-11T20:53:38.416Z,101100.25
2022-09-11T20:56:11.036Z,101091.06
2022-09-11T20:58:38.750Z,101093.78
2022-09-11T21:01:06.887Z,101097.25
2022-09-11T21:03:33.578Z,101094.88
2022-09-11T21:06:09.542Z,101097.22
2022-09-11T21:08:36.404Z,101094.59
2022-09-11T21:11:06.956Z,101095.03
2022-09-11T21:13:38.627Z,101092.41
2022-09-11T21:16:07.682Z,101092.53
2022-09-11T21:18:34.882Z,101091.81
2022-09-11T21:21:01.537Z,101084.75
2022-09-11T21:23:28.287Z,101088.97
2022-09-11T21:25:54.953Z,101086.22
2022-09-11T21:28:22.006Z,101085.03
2022-09-11T21:30:48.686Z,101091.66
2022-09-11T21:33:15.318Z,101084.09
2022-09-11T21:35:42.021Z,101084.75
2022-09-11T21:38:08.783Z,101087.63
2022-09-11T21:40:35.353Z,101085.00
2022-09-11T21:43:03.105Z,101084.28
2022-09-11T21:45:29.632Z,101085.84
2022-09-11T21:47:57.558Z,101088.78
2022-09-11T21:50:24.112Z,101090.06
2022-09-11T21:52:50.708Z,101087.44
2022-09-11T21:55:17.506Z,101086.50
2022-09-11T21:57:44.597Z,101094.69
2022-09-11T22:00:12.826Z,101095.72
2022-09-11T22:02:42.266Z,101095.50
2022-09-11T22:05:09.511Z,101092.59
2022-09-11T22:07:36.446Z,101086.28
2022-09-11T22:10:04.947Z,101090.50
2022-09-11T22:12:31.607Z,101092.19
2022-09-11T22:14:58.491Z,101096.38
2022-09-11T22:17:25.075Z,101089.56
2022-09-11T22:19:51.614Z,101095.38
2022-09-11T22:22:18.569Z,101082.81
2022-09-11T22:24:45.113Z,101095.22
2022-09-11T22:27:11.746Z,101092.81
2022-09-11T22:29:38.371Z,101086.75
2022-09-11T22:32:05.870Z,101093.72
2022-09-11T22:34:34.781Z,101087.22
2022-09-11T22:37:08.959Z,101094.19
2022-09-11T22:39:35.692Z,101089.78
2022-09-11T22:42:04.447Z,101094.63
2022-09-11T22:44:31.046Z,101094.19
2022-09-11T22:46:57.651Z,101097.00
2022-09-11T22:49:24.596Z,101103.47
2022-09-11T22:51:51.268Z,101099.84
2022-09-11T22:54:18.006Z,101098.78
2022-09-11T22:56:44.781Z,101092.31
2022-09-11T22:59:11.278Z,101086.88
2022-09-11T23:01:38.155Z,101088.09
2022-09-11T23:04:05.067Z,101082.66
2022-09-11T23:06:50.051Z,101081.06
2022-09-11T23:09:19.469Z,101086.94
2022-09-11T23:11:46.700Z,101077.31
2022-09-11T23:14:14.774Z,101081.25
2022-09-11T23:16:42.655Z,101079.72
2022-09-11T23:19:12.824Z,101079.38
2022-09-11T23:21:39.461Z,101078.13
2022-09-11T23:24:06.261Z,101078.44
2022-09-11T23:26:32.865Z,101073.91
2022-09-11T23:28:59.454Z,101069.63
2022-09-11T23:31:30.461Z,101078.44
2022-09-11T23:33:59.498Z,101068.59
2022-09-11T23:36:26.686Z,101065.22
2022-09-11T23:38:53.264Z,101063.13
2022-09-11T23:41:20.474Z,101068.16
2022-09-11T23:43:47.415Z,101056.66
2022-09-11T23:46:15.258Z,101063.34
2022-09-11T23:48:42.217Z,101063.56
2022-09-11T23:51:10.388Z,101060.94
2022-09-11T23:53:40.821Z,101062.09
2022-09-11T23:56:07.785Z,101064.22
2022-09-11T23:58:39.226Z,101067.16
